Greer, Arizona
Current Conditions -  °F | °C
As of 8:55 PM on Friday 24 Oct 2014 (Local Time) from KJTC Reporting Station
Clear Clear  
Wind Chill: 10°   Ceiling: Unl
Heat Index: 10°   Visibility: 10mi
Dew Point:   Wind: 9mph
Humidity: 62%   Direction: 210°SSW
Pressure: 30.4"   Gusts: NA
Location:  34.01°N, 109.46°W
Report Text: KJTC 250355Z AUTO 21008KT 10SM CLR 10/03 A3040 RMK AO2
Loading
Personal Weather Stations






























Interactive Weather Map
Tropical Storm Tracking
New forecast layout! Learn more

10-Day Weather Forecast

Advertisements
Track Severe Weather on mobile